Upper Tract, West Virginia
Current Conditions -  °F | °C
As of 12:55 PM on Friday 31 Oct 2014 (Local Time) from KW99 Reporting Station
Overcast Overcast  
Wind Chill: 47°   Ceiling: 5000
Heat Index: 47°   Visibility: 10mi
Dew Point: 32°   Wind: 0mph
Humidity: 57%   Direction: NA
Pressure: 29.92"   Gusts: NA
Location:  38.79°N, 79.28°W
Report Text: KW99 311655Z AUTO 00000KT 10SM OVC050 08/00 A2992 RMK AO2 T00830002
Loading
Personal Weather Stations






























Interactive Weather Map
Tropical Storm Tracking
New forecast layout! Learn more

10-Day Weather Forecast

Advertisements
Track Severe Weather on mobile